sensor_id;sensor_type;location;lat;lon;timestamp;pressure;altitude;pressure_sealevel;temperature;humidity
29467;BME280;60968;37.490;-122.288;2022-12-07T00:00:46;98971.16;;;10.35;93.87
29467;BME280;60968;37.490;-122.288;2022-12-07T00:03:48;98977.38;;;10.20;97.12
29467;BME280;60968;37.490;-122.288;2022-12-07T00:06:54;98982.69;;;10.11;99.17
29467;BME280;60968;37.490;-122.288;2022-12-07T00:09:55;98978.41;;;10.07;99.75
29467;BME280;60968;37.490;-122.288;2022-12-07T00:12:56;98976.75;;;10.01;100.00
29467;BME280;60968;37.490;-122.288;2022-12-07T00:16:02;98987.22;;;9.96;100.00
29467;BME280;60968;37.490;-122.288;2022-12-07T00:19:03;98986.44;;;9.88;100.00
29467;BME280;60968;37.490;-122.288;2022-12-07T00:22:05;98991.69;;;9.87;100.00
29467;BME280;60968;37.490;-122.288;2022-12-07T00:25:06;98993.47;;;9.82;100.00
29467;BME280;60968;37.490;-122.288;2022-12-07T00:28:06;98996.06;;;9.82;100.00
29467;BME280;60968;37.490;-122.288;2022-12-07T00:31:09;98996.06;;;9.83;100.00
29467;BME280;60968;37.490;-122.288;2022-12-07T00:34:16;98998.72;;;9.77;100.00
29467;BME280;60968;37.490;-122.288;2022-12-07T00:37:18;98996.28;;;9.63;100.00
29467;BME280;60968;37.490;-122.288;2022-12-07T00:40:19;99006.84;;;9.46;100.00
29467;BME280;60968;37.490;-122.288;2022-12-07T00:43:19;99007.00;;;9.29;100.00
29467;BME280;60968;37.490;-122.288;2022-12-07T00:46:21;99008.84;;;9.18;100.00
29467;BME280;60968;37.490;-122.288;2022-12-07T00:49:22;99008.91;;;9.07;100.00
29467;BME280;60968;37.490;-122.288;2022-12-07T00:52:23;99012.50;;;8.95;100.00
29467;BME280;60968;37.490;-122.288;2022-12-07T00:55:24;99020.34;;;8.84;100.00
29467;BME280;60968;37.490;-122.288;2022-12-07T00:58:25;99023.94;;;8.66;100.00
29467;BME280;60968;37.490;-122.288;2022-12-07T01:01:28;99028.38;;;8.49;100.00
29467;BME280;60968;37.490;-122.288;2022-12-07T01:04:30;99033.63;;;8.32;100.00
29467;BME280;60968;37.490;-122.288;2022-12-07T01:07:30;99027.59;;;8.22;100.00
29467;BME280;60968;37.490;-122.288;2022-12-07T01:10:34;99027.66;;;8.10;100.00
29467;BME280;60968;37.490;-122.288;2022-12-07T01:13:35;99026.00;;;7.96;100.00
29467;BME280;60968;37.490;-122.288;2022-12-07T01:16:36;99029.47;;;7.86;100.00
29467;BME280;60968;37.490;-122.288;2022-12-07T01:19:38;99032.94;;;7.79;100.00
29467;BME280;60968;37.490;-122.288;2022-12-07T01:22:41;99034.69;;;7.73;100.00
29467;BME280;60968;37.490;-122.288;2022-12-07T01:25:42;99034.69;;;7.69;100.00
29467;BME280;60968;37.490;-122.288;2022-12-07T01:28:43;99035.56;;;7.60;100.00
29467;BME280;60968;37.490;-122.288;2022-12-07T01:31:48;99034.72;;;7.53;100.00
29467;BME280;60968;37.490;-122.288;2022-12-07T01:34:49;99033.88;;;7.50;100.00
29467;BME280;60968;37.490;-122.288;2022-12-07T01:37:50;99033.00;;;7.45;100.00
29467;BME280;60968;37.490;-122.288;2022-12-07T01:40:58;99035.63;;;7.38;100.00
29467;BME280;60968;37.490;-122.288;2022-12-07T01:44:17;99043.38;;;7.34;100.00
29467;BME280;60968;37.490;-122.288;2022-12-07T01:47:18;99045.97;;;7.29;100.00
29467;BME280;60968;37.490;-122.288;2022-12-07T01:50:20;99045.09;;;7.26;100.00
29467;BME280;60968;37.490;-122.288;2022-12-07T01:53:24;99050.28;;;7.22;100.00
29467;BME280;60968;37.490;-122.288;2022-12-07T01:56:29;99046.84;;;7.24;100.00
29467;BME280;60968;37.490;-122.288;2022-12-07T01:59:30;99051.19;;;7.23;100.00
29467;BME280;60968;37.490;-122.288;2022-12-07T02:02:34;99045.09;;;7.22;100.00
29467;BME280;60968;37.490;-122.288;2022-12-07T02:05:37;99042.53;;;7.30;100.00
29467;BME280;60968;37.490;-122.288;2022-12-07T02:08:39;99042.53;;;7.35;100.00
29467;BME280;60968;37.490;-122.288;2022-12-07T02:11:40;99041.69;;;7.31;100.00
29467;BME280;60968;37.490;-122.288;2022-12-07T02:14:42;99048.56;;;7.26;100.00
29467;BME280;60968;37.490;-122.288;2022-12-07T02:18:07;99058.94;;;7.34;100.00
29467;BME280;60968;37.490;-122.288;2022-12-07T02:21:27;99062.41;;;7.39;100.00
29467;BME280;60968;37.490;-122.288;2022-12-07T02:28:05;99075.34;;;7.22;100.00
29467;BME280;60968;37.490;-122.288;2022-12-07T02:31:18;99075.38;;;7.17;100.00
29467;BME280;60968;37.490;-122.288;2022-12-07T02:41:16;99077.94;;;7.08;100.00
29467;BME280;60968;37.490;-122.288;2022-12-07T02:44:23;99078.78;;;7.06;100.00
29467;BME280;60968;37.490;-122.288;2022-12-07T02:47:26;99081.38;;;7.01;100.00
29467;BME280;60968;37.490;-122.288;2022-12-07T02:50:28;99080.50;;;6.97;100.00
29467;BME280;60968;37.490;-122.288;2022-12-07T02:53:36;99083.97;;;6.99;100.00
29467;BME280;60968;37.490;-122.288;2022-12-07T03:00:13;99079.66;;;6.98;100.00
29467;BME280;60968;37.490;-122.288;2022-12-07T03:03:16;99092.59;;;6.92;100.00
29467;BME280;60968;37.490;-122.288;2022-12-07T03:06:24;99092.56;;;6.89;100.00
29467;BME280;60968;37.490;-122.288;2022-12-07T03:09:41;99090.88;;;6.86;100.00
29467;BME280;60968;37.490;-122.288;2022-12-07T03:19:17;99096.91;;;6.79;100.00
29467;BME280;60968;37.490;-122.288;2022-12-07T03:22:19;99101.19;;;6.76;100.00
29467;BME280;60968;37.490;-122.288;2022-12-07T03:25:22;99100.34;;;6.77;100.00
29467;BME280;60968;37.490;-122.288;2022-12-07T03:28:25;99099.44;;;6.68;100.00
29467;BME280;60968;37.490;-122.288;2022-12-07T03:31:33;99100.28;;;6.66;100.00
29467;BME280;60968;37.490;-122.288;2022-12-07T03:34:47;99108.06;;;6.61;100.00
29467;BME280;60968;37.490;-122.288;2022-12-07T03:38:00;99107.16;;;6.62;100.00
29467;BME280;60968;37.490;-122.288;2022-12-07T03:44:14;99116.69;;;6.65;100.00
29467;BME280;60968;37.490;-122.288;2022-12-07T03:50:36;99110.66;;;6.66;100.00
29467;BME280;60968;37.490;-122.288;2022-12-07T03:54:02;99111.50;;;6.63;100.00
29467;BME280;60968;37.490;-122.288;2022-12-07T03:57:07;99119.25;;;6.60;100.00
29467;BME280;60968;37.490;-122.288;2022-12-07T04:00:10;99117.53;;;6.56;100.00
29467;BME280;60968;37.490;-122.288;2022-12-07T04:03:11;99120.09;;;6.56;100.00
29467;BME280;60968;37.490;-122.288;2022-12-07T04:06:12;99126.19;;;6.63;100.00
29467;BME280;60968;37.490;-122.288;2022-12-07T04:09:13;99133.94;;;6.58;100.00
29467;BME280;60968;37.490;-122.288;2022-12-07T04:12:14;99133.91;;;6.50;100.00
29467;BME280;60968;37.490;-122.288;2022-12-07T04:15:15;99135.63;;;6.51;100.00
29467;BME280;60968;37.490;-122.288;2022-12-07T04:18:18;99139.06;;;6.49;100.00
29467;BME280;60968;37.490;-122.288;2022-12-07T04:21:18;99146.84;;;6.49;100.00
29467;BME280;60968;37.490;-122.288;2022-12-07T04:24:20;99147.69;;;6.49;100.00
29467;BME280;60968;37.490;-122.288;2022-12-07T04:27:22;99143.38;;;6.48;100.00
29467;BME280;60968;37.490;-122.288;2022-12-07T04:30:23;99148.56;;;6.50;100.00
29467;BME280;60968;37.490;-122.288;2022-12-07T04:33:24;99150.28;;;6.49;100.00
29467;BME280;60968;37.490;-122.288;2022-12-07T04:36:24;99147.69;;;6.49;100.00
29467;BME280;60968;37.490;-122.288;2022-12-07T04:39:31;99151.16;;;6.48;100.00
29467;BME280;60968;37.490;-122.288;2022-12-07T04:42:32;99154.59;;;6.46;100.00
29467;BME280;60968;37.490;-122.288;2022-12-07T04:45:33;99153.69;;;6.41;100.00
29467;BME280;60968;37.490;-122.288;2022-12-07T04:48:34;99153.69;;;6.36;100.00
29467;BME280;60968;37.490;-122.288;2022-12-07T04:51:35;99157.97;;;6.32;100.00
29467;BME280;60968;37.490;-122.288;2022-12-07T04:54:35;99156.25;;;6.34;100.00
29467;BME280;60968;37.490;-122.288;2022-12-07T04:57:36;99161.44;;;6.38;100.00
29467;BME280;60968;37.490;-122.288;2022-12-07T05:00:37;99163.19;;;6.39;100.00
29467;BME280;60968;37.490;-122.288;2022-12-07T05:03:38;99164.03;;;6.38;100.00
29467;BME280;60968;37.490;-122.288;2022-12-07T05:06:41;99162.28;;;6.37;100.00
29467;BME280;60968;37.490;-122.288;2022-12-07T05:09:42;99155.44;;;6.39;100.00
29467;BME280;60968;37.490;-122.288;2022-12-07T05:12:43;99161.47;;;6.41;100.00
29467;BME280;60968;37.490;-122.288;2022-12-07T05:15:44;99155.44;;;6.45;100.00
29467;BME280;60968;37.490;-122.288;2022-12-07T05:18:45;99152.84;;;6.46;100.00
29467;BME280;60968;37.490;-122.288;2022-12-07T05:21:47;99167.53;;;6.49;100.00
29467;BME280;60968;37.490;-122.288;2022-12-07T05:24:48;99165.84;;;6.54;100.00
29467;BME280;60968;37.490;-122.288;2022-12-07T05:27:49;99167.56;;;6.57;100.00
29467;BME280;60968;37.490;-122.288;2022-12-07T05:30:50;99165.84;;;6.56;100.00
29467;BME280;60968;37.490;-122.288;2022-12-07T05:33:52;99162.41;;;6.58;100.00
29467;BME280;60968;37.490;-122.288;2022-12-07T05:36:55;99166.72;;;6.58;100.00
29467;BME280;60968;37.490;-122.288;2022-12-07T05:39:56;99159.78;;;6.55;100.00
29467;BME280;60968;37.490;-122.288;2022-12-07T05:42:56;99164.13;;;6.53;100.00
29467;BME280;60968;37.490;-122.288;2022-12-07T05:45:58;99167.56;;;6.50;100.00
29467;BME280;60968;37.490;-122.288;2022-12-07T05:48:59;99170.13;;;6.52;100.00
29467;BME280;60968;37.490;-122.288;2022-12-07T05:52:00;99175.31;;;6.50;100.00
29467;BME280;60968;37.490;-122.288;2022-12-07T05:55:01;99172.72;;;6.49;100.00
29467;BME280;60968;37.490;-122.288;2022-12-07T05:58:02;99175.31;;;6.49;100.00
29467;BME280;60968;37.490;-122.288;2022-12-07T06:01:03;99177.00;;;6.47;100.00
29467;BME280;60968;37.490;-122.288;2022-12-07T06:04:03;99175.28;;;6.44;100.00
29467;BME280;60968;37.490;-122.288;2022-12-07T06:07:05;99182.16;;;6.41;100.00
29467;BME280;60968;37.490;-122.288;2022-12-07T06:10:06;99185.59;;;6.37;100.00
29467;BME280;60968;37.490;-122.288;2022-12-07T06:13:08;99188.19;;;6.37;100.00
29467;BME280;60968;37.490;-122.288;2022-12-07T06:16:09;99191.59;;;6.34;100.00
29467;BME280;60968;37.490;-122.288;2022-12-07T06:19:09;99196.78;;;6.35;100.00
29467;BME280;60968;37.490;-122.288;2022-12-07T06:22:11;99197.69;;;6.42;100.00
29467;BME280;60968;37.490;-122.288;2022-12-07T06:25:11;99195.13;;;6.47;100.00
29467;BME280;60968;37.490;-122.288;2022-12-07T06:28:12;99197.78;;;6.55;100.00
29467;BME280;60968;37.490;-122.288;2022-12-07T06:31:13;99201.25;;;6.61;100.00
29467;BME280;60968;37.490;-122.288;2022-12-07T06:34:17;99208.19;;;6.65;100.00
29467;BME280;60968;37.490;-122.288;2022-12-07T06:37:18;99199.53;;;6.63;100.00
29467;BME280;60968;37.490;-122.288;2022-12-07T06:40:19;99202.94;;;6.56;100.00
29467;BME280;60968;37.490;-122.288;2022-12-07T06:43:19;99206.38;;;6.49;100.00
29467;BME280;60968;37.490;-122.288;2022-12-07T06:46:20;99201.19;;;6.43;100.00
29467;BME280;60968;37.490;-122.288;2022-12-07T06:49:21;99195.09;;;6.38;100.00
29467;BME280;60968;37.490;-122.288;2022-12-07T06:52:22;99195.09;;;6.39;100.00
29467;BME280;60968;37.490;-122.288;2022-12-07T06:55:23;99204.56;;;6.35;100.00
29467;BME280;60968;37.490;-122.288;2022-12-07T06:58:24;99197.69;;;6.36;100.00
29467;BME280;60968;37.490;-122.288;2022-12-07T07:01:24;99205.44;;;6.36;100.00
29467;BME280;60968;37.490;-122.288;2022-12-07T07:04:27;99202.84;;;6.36;100.00
29467;BME280;60968;37.490;-122.288;2022-12-07T07:07:28;99200.25;;;6.36;100.00
29467;BME280;60968;37.490;-122.288;2022-12-07T07:10:28;99208.03;;;6.34;100.00
29467;BME280;60968;37.490;-122.288;2022-12-07T07:13:29;99209.72;;;6.32;100.00
29467;BME280;60968;37.490;-122.288;2022-12-07T07:16:31;99207.13;;;6.31;100.00
29467;BME280;60968;37.490;-122.288;2022-12-07T07:19:31;99212.28;;;6.29;100.00
29467;BME280;60968;37.490;-122.288;2022-12-07T07:22:32;99207.97;;;6.28;100.00
29467;BME280;60968;37.490;-122.288;2022-12-07T07:25:35;99212.28;;;6.25;100.00
29467;BME280;60968;37.490;-122.288;2022-12-07T07:28:35;99214.78;;;6.15;100.00
29467;BME280;60968;37.490;-122.288;2022-12-07T07:35:19;99223.34;;;6.05;100.00
29467;BME280;60968;37.490;-122.288;2022-12-07T07:38:19;99219.00;;;6.03;100.00
29467;BME280;60968;37.490;-122.288;2022-12-07T07:41:20;99228.50;;;6.02;100.00
29467;BME280;60968;37.490;-122.288;2022-12-07T07:44:21;99225.94;;;6.07;100.00
29467;BME280;60968;37.490;-122.288;2022-12-07T07:47:22;99225.97;;;6.10;100.00
29467;BME280;60968;37.490;-122.288;2022-12-07T07:50:24;99226.84;;;6.12;100.00
29467;BME280;60968;37.490;-122.288;2022-12-07T07:53:25;99223.41;;;6.14;100.00
29467;BME280;60968;37.490;-122.288;2022-12-07T07:56:26;99224.28;;;6.13;100.00
29467;BME280;60968;37.490;-122.288;2022-12-07T07:59:27;99226.84;;;6.12;100.00
29467;BME280;60968;37.490;-122.288;2022-12-07T08:02:28;99229.50;;;6.23;100.00
29467;BME280;60968;37.490;-122.288;2022-12-07T08:05:29;99223.56;;;6.34;100.00
29467;BME280;60968;37.490;-122.288;2022-12-07T08:08:33;99221.81;;;6.35;100.00
29467;BME280;60968;37.490;-122.288;2022-12-07T08:11:39;99220.16;;;6.45;100.00
29467;BME280;60968;37.490;-122.288;2022-12-07T08:14:40;99221.81;;;6.37;100.00
29467;BME280;60968;37.490;-122.288;2022-12-07T08:17:40;99221.84;;;6.38;100.00
29467;BME280;60968;37.490;-122.288;2022-12-07T08:20:43;99219.25;;;6.41;100.00
29467;BME280;60968;37.490;-122.288;2022-12-07T08:23:44;99213.28;;;6.50;100.00
29467;BME280;60968;37.490;-122.288;2022-12-07T08:26:45;99220.16;;;6.45;100.00
29467;BME280;60968;37.490;-122.288;2022-12-07T08:29:45;99214.13;;;6.44;100.00
29467;BME280;60968;37.490;-122.288;2022-12-07T08:32:47;99218.41;;;6.41;100.00
29467;BME280;60968;37.490;-122.288;2022-12-07T08:35:49;99210.63;;;6.41;100.00
29467;BME280;60968;37.490;-122.288;2022-12-07T08:38:50;99209.78;;;6.40;100.00
29467;BME280;60968;37.490;-122.288;2022-12-07T08:41:51;99214.97;;;6.40;100.00
29467;BME280;60968;37.490;-122.288;2022-12-07T08:44:56;99215.81;;;6.38;100.00
29467;BME280;60968;37.490;-122.288;2022-12-07T08:48:03;99210.59;;;6.33;100.00
29467;BME280;60968;37.490;-122.288;2022-12-07T08:51:07;99201.94;;;6.31;100.00
29467;BME280;60968;37.490;-122.288;2022-12-07T08:54:11;99205.38;;;6.30;100.00
29467;BME280;60968;37.490;-122.288;2022-12-07T08:57:14;99205.38;;;6.31;100.00
29467;BME280;60968;37.490;-122.288;2022-12-07T09:00:16;99209.72;;;6.34;100.00
29467;BME280;60968;37.490;-122.288;2022-12-07T09:03:18;99207.13;;;6.31;100.00
29467;BME280;60968;37.490;-122.288;2022-12-07T09:06:19;99205.44;;;6.36;100.00
29467;BME280;60968;37.490;-122.288;2022-12-07T09:09:20;99214.06;;;6.41;100.00
29467;BME280;60968;37.490;-122.288;2022-12-07T09:12:21;99211.53;;;6.43;100.00
29467;BME280;60968;37.490;-122.288;2022-12-07T09:15:22;99219.28;;;6.43;100.00
29467;BME280;60968;37.490;-122.288;2022-12-07T09:18:23;99220.16;;;6.46;100.00
29467;BME280;60968;37.490;-122.288;2022-12-07T09:21:24;99227.06;;;6.43;100.00
29467;BME280;60968;37.490;-122.288;2022-12-07T09:24:25;99221.81;;;6.37;100.00
29467;BME280;60968;37.490;-122.288;2022-12-07T09:27:31;99229.56;;;6.27;100.00
29467;BME280;60968;37.490;-122.288;2022-12-07T09:30:34;99223.47;;;6.24;100.00
29467;BME280;60968;37.490;-122.288;2022-12-07T09:33:35;99232.97;;;6.25;100.00
29467;BME280;60968;37.490;-122.288;2022-12-07T09:36:36;99225.22;;;6.25;100.00
29467;BME280;60968;37.490;-122.288;2022-12-07T09:39:40;99217.44;;;6.23;100.00
29467;BME280;60968;37.490;-122.288;2022-12-07T09:42:45;99216.56;;;6.24;100.00
29467;BME280;60968;37.490;-122.288;2022-12-07T09:45:51;99221.72;;;6.21;100.00
29467;BME280;60968;37.490;-122.288;2022-12-07T09:48:52;99222.53;;;6.15;100.00
29467;BME280;60968;37.490;-122.288;2022-12-07T09:52:03;99225.94;;;6.05;100.00
29467;BME280;60968;37.490;-122.288;2022-12-07T09:55:23;99224.13;;;5.96;100.00
29467;BME280;60968;37.490;-122.288;2022-12-07T09:58:28;99224.94;;;5.91;100.00
29467;BME280;60968;37.490;-122.288;2022-12-07T10:01:31;99227.44;;;5.84;100.00
29467;BME280;60968;37.490;-122.288;2022-12-07T10:04:33;99240.34;;;5.80;100.00
29467;BME280;60968;37.490;-122.288;2022-12-07T10:07:33;99244.63;;;5.76;100.00
29467;BME280;60968;37.490;-122.288;2022-12-07T10:10:35;99227.41;;;5.80;100.00
29467;BME280;60968;37.490;-122.288;2022-12-07T10:13:47;99243.00;;;5.89;100.00
29467;BME280;60968;37.490;-122.288;2022-12-07T10:16:49;99234.41;;;5.92;100.00
29467;BME280;60968;37.490;-122.288;2022-12-07T10:19:49;99234.34;;;5.84;100.00
29467;BME280;60968;37.490;-122.288;2022-12-07T10:23:05;99235.22;;;5.86;100.00
29467;BME280;60968;37.490;-122.288;2022-12-07T10:26:32;99240.34;;;5.80;100.00
29467;BME280;60968;37.490;-122.288;2022-12-07T10:29:41;99236.81;;;5.72;100.00
29467;BME280;60968;37.490;-122.288;2022-12-07T10:32:47;99247.03;;;5.56;100.00
29467;BME280;60968;37.490;-122.288;2022-12-07T10:35:48;99242.69;;;5.54;100.00
29467;BME280;60968;37.490;-122.288;2022-12-07T10:41:56;99253.84;;;5.51;100.00
29467;BME280;60968;37.490;-122.288;2022-12-07T10:48:17;99240.94;;;5.51;100.00
29467;BME280;60968;37.490;-122.288;2022-12-07T10:51:28;99247.84;;;5.52;100.00
29467;BME280;60968;37.490;-122.288;2022-12-07T11:08:35;99262.41;;;5.45;100.00
29467;BME280;60968;37.490;-122.288;2022-12-07T11:21:53;99257.22;;;5.42;100.00
29467;BME280;60968;37.490;-122.288;2022-12-07T11:29:06;99255.50;;;5.43;100.00
29467;BME280;60968;37.490;-122.288;2022-12-07T11:38:53;99259.75;;;5.38;100.00
29467;BME280;60968;37.490;-122.288;2022-12-07T11:42:26;99268.38;;;5.40;100.00
29467;BME280;60968;37.490;-122.288;2022-12-07T11:45:35;99261.53;;;5.43;100.00
29467;BME280;60968;37.490;-122.288;2022-12-07T11:48:45;99270.16;;;5.45;100.00
29467;BME280;60968;37.490;-122.288;2022-12-07T11:52:16;99269.31;;;5.45;100.00
29467;BME280;60968;37.490;-122.288;2022-12-07T11:58:55;99276.22;;;5.47;100.00
29467;BME280;60968;37.490;-122.288;2022-12-07T12:02:23;99274.44;;;5.40;100.00
29467;BME280;60968;37.490;-122.288;2022-12-07T12:05:22;99276.13;;;5.40;100.00
29467;BME280;60968;37.490;-122.288;2022-12-07T12:09:48;99287.28;;;5.36;100.00
29467;BME280;60968;37.490;-122.288;2022-12-07T12:26:32;99288.16;;;5.35;100.00
29467;BME280;60968;37.490;-122.288;2022-12-07T12:29:39;99285.56;;;5.35;100.00
29467;BME280;60968;37.490;-122.288;2022-12-07T12:32:42;99288.13;;;5.33;100.00
29467;BME280;60968;37.490;-122.288;2022-12-07T12:35:44;99286.41;;;5.33;100.00
29467;BME280;60968;37.490;-122.288;2022-12-07T12:39:09;99294.19;;;5.37;100.00
29467;BME280;60968;37.490;-122.288;2022-12-07T12:42:18;99301.97;;;5.38;100.00
29467;BME280;60968;37.490;-122.288;2022-12-07T12:45:20;99307.16;;;5.40;100.00
29467;BME280;60968;37.490;-122.288;2022-12-07T12:48:29;99297.69;;;5.39;100.00
29467;BME280;60968;37.490;-122.288;2022-12-07T12:51:37;99300.19;;;5.36;100.00
29467;BME280;60968;37.490;-122.288;2022-12-07T13:08:21;99311.47;;;5.39;100.00
29467;BME280;60968;37.490;-122.288;2022-12-07T13:14:52;99315.81;;;5.45;100.00
29467;BME280;60968;37.490;-122.288;2022-12-07T13:17:54;99327.00;;;5.44;100.00
29467;BME280;60968;37.490;-122.288;2022-12-07T13:24:07;99334.72;;;5.39;100.00
29467;BME280;60968;37.490;-122.288;2022-12-07T13:27:11;99334.72;;;5.39;100.00
29467;BME280;60968;37.490;-122.288;2022-12-07T13:30:19;99326.16;;;5.45;100.00
29467;BME280;60968;37.490;-122.288;2022-12-07T13:33:20;99335.72;;;5.50;100.00
29467;BME280;60968;37.490;-122.288;2022-12-07T13:36:27;99337.41;;;5.48;100.00
29467;BME280;60968;37.490;-122.288;2022-12-07T13:39:33;99342.47;;;5.41;100.00
29467;BME280;60968;37.490;-122.288;2022-12-07T13:42:35;99345.00;;;5.35;100.00
29467;BME280;60968;37.490;-122.288;2022-12-07T13:45:36;99346.66;;;5.31;100.00
29467;BME280;60968;37.490;-122.288;2022-12-07T13:48:44;99347.53;;;5.31;100.00
29467;BME280;60968;37.490;-122.288;2022-12-07T13:51:45;99340.66;;;5.32;100.00
29467;BME280;60968;37.490;-122.288;2022-12-07T13:57:59;99347.50;;;5.28;100.00
29467;BME280;60968;37.490;-122.288;2022-12-07T14:01:02;99343.19;;;5.27;100.00
29467;BME280;60968;37.490;-122.288;2022-12-07T14:04:29;99339.78;;;5.31;100.00
29467;BME280;60968;37.490;-122.288;2022-12-07T14:07:30;99347.50;;;5.28;100.00
29467;BME280;60968;37.490;-122.288;2022-12-07T14:10:38;99350.97;;;5.29;100.00
29467;BME280;60968;37.490;-122.288;2022-12-07T14:20:28;99357.78;;;5.24;100.00
29467;BME280;60968;37.490;-122.288;2022-12-07T14:23:26;99351.69;;;5.20;100.00
29467;BME280;60968;37.490;-122.288;2022-12-07T14:26:27;99352.47;;;5.14;100.00
29467;BME280;60968;37.490;-122.288;2022-12-07T14:29:32;99355.06;;;5.16;100.00
29467;BME280;60968;37.490;-122.288;2022-12-07T14:32:36;99365.47;;;5.19;100.00
29467;BME280;60968;37.490;-122.288;2022-12-07T14:35:38;99362.94;;;5.22;100.00
29467;BME280;60968;37.490;-122.288;2022-12-07T14:38:39;99366.34;;;5.20;100.00
29467;BME280;60968;37.490;-122.288;2022-12-07T14:41:40;99365.34;;;5.11;100.00
29467;BME280;60968;37.490;-122.288;2022-12-07T14:44:41;99374.72;;;5.03;100.00
29467;BME280;60968;37.490;-122.288;2022-12-07T14:47:44;99377.25;;;4.98;100.00
29467;BME280;60968;37.490;-122.288;2022-12-07T14:50:49;99376.38;;;4.96;100.00
29467;BME280;60968;37.490;-122.288;2022-12-07T14:53:52;99376.31;;;4.95;100.00
29467;BME280;60968;37.490;-122.288;2022-12-07T14:56:53;99380.63;;;4.94;100.00
29467;BME280;60968;37.490;-122.288;2022-12-07T14:59:54;99378.03;;;4.93;100.00
29467;BME280;60968;37.490;-122.288;2022-12-07T15:02:56;99376.28;;;4.93;100.00
29467;BME280;60968;37.490;-122.288;2022-12-07T15:05:57;99383.25;;;4.97;100.00
29467;BME280;60968;37.490;-122.288;2022-12-07T15:08:58;99386.78;;;5.04;100.00
29467;BME280;60968;37.490;-122.288;2022-12-07T15:11:59;99392.03;;;5.10;100.00
29467;BME280;60968;37.490;-122.288;2022-12-07T15:15:01;99391.28;;;5.18;100.00
29467;BME280;60968;37.490;-122.288;2022-12-07T15:18:01;99398.25;;;5.23;100.00
29467;BME280;60968;37.490;-122.288;2022-12-07T15:21:02;99412.09;;;5.30;100.00
29467;BME280;60968;37.490;-122.288;2022-12-07T15:24:03;99413.09;;;5.38;100.00
29467;BME280;60968;37.490;-122.288;2022-12-07T15:27:04;99421.03;;;5.52;100.00
29467;BME280;60968;37.490;-122.288;2022-12-07T15:30:06;99419.44;;;5.65;100.00
29467;BME280;60968;37.490;-122.288;2022-12-07T15:33:07;99428.28;;;5.81;100.00
29467;BME280;60968;37.490;-122.288;2022-12-07T15:36:08;99430.13;;;5.91;100.00
29467;BME280;60968;37.490;-122.288;2022-12-07T15:39:15;99432.81;;;5.99;100.00
29467;BME280;60968;37.490;-122.288;2022-12-07T15:42:16;99423.41;;;6.09;100.00
29467;BME280;60968;37.490;-122.288;2022-12-07T15:45:18;99428.66;;;6.12;100.00
29467;BME280;60968;37.490;-122.288;2022-12-07T15:48:19;99422.69;;;6.19;100.00
29467;BME280;60968;37.490;-122.288;2022-12-07T15:51:28;99433.19;;;6.36;100.00
29467;BME280;60968;37.490;-122.288;2022-12-07T15:54:30;99428.97;;;6.46;100.00
29467;BME280;60968;37.490;-122.288;2022-12-07T15:57:32;99430.78;;;6.55;100.00
29467;BME280;60968;37.490;-122.288;2022-12-07T16:00:34;99425.66;;;6.61;100.00
29467;BME280;60968;37.490;-122.288;2022-12-07T16:03:35;99434.34;;;6.69;100.00
29467;BME280;60968;37.490;-122.288;2022-12-07T16:06:36;99427.28;;;7.89;100.00
29467;BME280;60968;37.490;-122.288;2022-12-07T16:09:38;99417.72;;;11.01;100.00
29467;BME280;60968;37.490;-122.288;2022-12-07T16:12:42;99426.66;;;12.89;97.56
29467;BME280;60968;37.490;-122.288;2022-12-07T16:15:43;99423.69;;;13.98;86.84
29467;BME280;60968;37.490;-122.288;2022-12-07T16:18:45;99421.13;;;14.74;78.10
29467;BME280;60968;37.490;-122.288;2022-12-07T16:21:46;99422.38;;;15.27;71.10
29467;BME280;60968;37.490;-122.288;2022-12-07T16:24:47;99421.53;;;15.58;65.48
29467;BME280;60968;37.490;-122.288;2022-12-07T16:27:48;99428.94;;;15.75;61.65
29467;BME280;60968;37.490;-122.288;2022-12-07T16:31:03;99432.56;;;15.71;57.49
29467;BME280;60968;37.490;-122.288;2022-12-07T16:34:04;99438.44;;;16.12;57.11
29467;BME280;60968;37.490;-122.288;2022-12-07T16:37:05;99441.69;;;16.49;57.34
29467;BME280;60968;37.490;-122.288;2022-12-07T16:40:06;99447.22;;;16.68;54.89
29467;BME280;60968;37.490;-122.288;2022-12-07T16:43:10;99448.16;;;16.65;54.77
29467;BME280;60968;37.490;-122.288;2022-12-07T16:46:28;99453.72;;;16.84;53.14
29467;BME280;60968;37.490;-122.288;2022-12-07T16:49:30;99459.72;;;17.16;52.08
29467;BME280;60968;37.490;-122.288;2022-12-07T16:52:32;99464.09;;;17.41;52.03
29467;BME280;60968;37.490;-122.288;2022-12-07T16:55:44;99477.88;;;17.74;51.14
29467;BME280;60968;37.490;-122.288;2022-12-07T16:58:47;99465.69;;;17.95;49.82
29467;BME280;60968;37.490;-122.288;2022-12-07T17:01:48;99477.75;;;16.45;55.33
29467;BME280;60968;37.490;-122.288;2022-12-07T17:04:49;99488.09;;;14.50;60.04
29467;BME280;60968;37.490;-122.288;2022-12-07T17:07:50;99491.06;;;12.94;68.36
29467;BME280;60968;37.490;-122.288;2022-12-07T17:10:51;99500.91;;;12.14;74.40
29467;BME280;60968;37.490;-122.288;2022-12-07T17:13:52;99507.41;;;11.78;79.05
29467;BME280;60968;37.490;-122.288;2022-12-07T17:16:53;99503.19;;;11.66;82.39
29467;BME280;60968;37.490;-122.288;2022-12-07T17:19:54;99512.78;;;11.64;86.05
29467;BME280;60968;37.490;-122.288;2022-12-07T17:22:55;99512.88;;;11.55;88.11
29467;BME280;60968;37.490;-122.288;2022-12-07T17:26:07;99516.44;;;11.44;90.24
29467;BME280;60968;37.490;-122.288;2022-12-07T17:29:12;99517.50;;;11.23;90.09
29467;BME280;60968;37.490;-122.288;2022-12-07T17:32:13;99521.78;;;11.33;88.69
29467;BME280;60968;37.490;-122.288;2022-12-07T17:35:14;99519.88;;;11.49;87.59